createdAt,value
2023-04-12T00:01:18.768Z,97515.56
2023-04-12T00:03:51.048Z,97517.13
2023-04-12T00:06:18.557Z,97516.19
2023-04-12T00:08:47.012Z,97513.78
2023-04-12T00:11:14.335Z,97512.97
2023-04-12T00:13:41.984Z,97520.38
2023-04-12T00:16:10.212Z,97515.34
2023-04-12T00:18:37.805Z,97517.13
2023-04-12T00:21:05.570Z,97512.13
2023-04-12T00:23:33.975Z,97514.19
2023-04-12T00:26:01.290Z,97508.94
2023-04-12T00:28:28.868Z,97517.34
2023-04-12T00:30:56.154Z,97513.91
2023-04-12T00:33:23.879Z,97517.13
2023-04-12T00:35:51.225Z,97517.78
2023-04-12T00:38:18.929Z,97510.00
2023-04-12T00:40:46.397Z,97512.13
2023-04-12T00:43:18.948Z,97506.09
2023-04-12T00:45:47.920Z,97503.41
2023-04-12T00:48:16.659Z,97504.63
2023-04-12T00:50:47.703Z,97495.28
2023-04-12T00:53:17.765Z,97493.63
2023-04-12T00:55:46.455Z,97502.38
2023-04-12T00:58:15.062Z,97509.97
2023-04-12T01:00:50.348Z,97504.22
2023-04-12T01:03:27.827Z,97500.38
2023-04-12T01:06:38.633Z,97495.41
2023-04-12T01:09:25.812Z,97499.88
2023-04-12T01:12:02.097Z,97494.69
2023-04-12T01:15:06.804Z,97491.44
2023-04-12T01:17:44.185Z,97499.75
2023-04-12T01:20:48.567Z,97499.75
2023-04-12T01:23:56.729Z,97505.28
2023-04-12T01:26:49.120Z,97496.22
2023-04-12T01:29:21.270Z,97504.88
2023-04-12T01:32:12.404Z,97499.03
2023-04-12T01:34:42.578Z,97506.63
2023-04-12T01:37:10.684Z,97498.09
2023-04-12T01:39:38.865Z,97499.34
2023-04-12T01:42:06.741Z,97501.09
2023-04-12T01:44:33.996Z,97503.94
2023-04-12T01:47:01.598Z,97506.91
2023-04-12T01:49:54.167Z,97495.59
2023-04-12T01:52:27.246Z,97502.56
2023-04-12T01:54:59.354Z,97489.16
2023-04-12T01:57:27.937Z,97493.00
2023-04-12T01:59:59.094Z,97486.97
2023-04-12T02:02:27.482Z,97488.63
2023-04-12T02:04:56.604Z,97490.09
2023-04-12T02:07:24.263Z,97472.41
2023-04-12T02:09:51.589Z,97493.81
2023-04-12T02:12:19.220Z,97488.00
2023-04-12T02:14:47.198Z,97485.72
2023-04-12T02:17:14.827Z,97486.31
2023-04-12T02:19:42.078Z,97491.41
2023-04-12T02:22:09.827Z,97489.97
2023-04-12T02:24:37.222Z,97482.59
2023-04-12T02:27:04.898Z,97487.59
2023-04-12T02:29:32.167Z,97476.66
2023-04-12T02:31:59.783Z,97477.88
2023-04-12T02:34:27.209Z,97478.09
2023-04-12T02:36:54.850Z,97483.41
2023-04-12T02:39:22.394Z,97478.13
2023-04-12T02:41:50.081Z,97477.81
2023-04-12T02:44:17.274Z,97477.38
2023-04-12T02:46:44.887Z,97477.38
2023-04-12T02:49:12.092Z,97480.19
2023-04-12T02:51:40.139Z,97483.84
2023-04-12T02:54:07.435Z,97484.47
2023-04-12T02:56:38.145Z,97479.25
2023-04-12T02:59:06.920Z,97479.59
2023-04-12T03:01:35.008Z,97489.31
2023-04-12T03:04:02.568Z,97490.28
2023-04-12T03:06:30.370Z,97484.06
2023-04-12T03:08:58.270Z,97500.91
2023-04-12T03:11:26.084Z,97494.75
2023-04-12T03:13:53.538Z,97499.53
2023-04-12T03:16:26.219Z,97502.34
2023-04-12T03:18:53.617Z,97501.41
2023-04-12T03:21:21.245Z,97505.78
2023-04-12T03:23:48.613Z,97490.81
2023-04-12T03:26:16.195Z,97491.97
2023-04-12T03:28:43.489Z,97499.03
2023-04-12T03:31:11.057Z,97497.16
2023-04-12T03:33:39.066Z,97495.56
2023-04-12T03:36:07.505Z,97493.78
2023-04-12T03:38:34.832Z,97487.78
2023-04-12T03:41:02.407Z,97483.28
2023-04-12T03:43:35.959Z,97474.88
2023-04-12T03:46:07.029Z,97474.78
2023-04-12T03:48:34.992Z,97473.50
2023-04-12T03:51:07.868Z,97482.47
2023-04-12T03:53:35.445Z,97481.09
2023-04-12T03:56:03.044Z,97478.31
2023-04-12T03:58:30.468Z,97474.78
2023-04-12T04:00:58.276Z,97478.59
2023-04-12T04:03:27.208Z,97472.91
2023-04-12T04:05:55.907Z,97465.75
2023-04-12T04:08:23.211Z,97465.75
2023-04-12T04:10:50.921Z,97467.81
2023-04-12T04:13:18.166Z,97463.06
2023-04-12T04:15:46.192Z,97468.44
2023-04-12T04:18:13.432Z,97461.78
2023-04-12T04:20:41.564Z,97458.03
2023-04-12T04:23:10.365Z,97461.41
2023-04-12T04:25:39.434Z,97472.50
2023-04-12T04:28:07.971Z,97475.50
2023-04-12T04:30:39.172Z,97465.13
2023-04-12T04:33:07.328Z,97467.19
2023-04-12T04:35:34.996Z,97476.97
2023-04-12T04:38:02.218Z,97470.84
2023-04-12T04:40:29.927Z,97479.47
2023-04-12T04:42:57.975Z,97473.75
2023-04-12T04:45:26.782Z,97471.78
2023-04-12T04:47:55.402Z,97481.25
2023-04-12T04:50:25.184Z,97482.00
2023-04-12T04:52:52.666Z,97485.09
2023-04-12T04:55:24.955Z,97483.97
2023-04-12T04:57:52.265Z,97483.75
2023-04-12T05:00:21.633Z,97492.19
2023-04-12T05:02:49.045Z,97478.75
2023-04-12T05:05:17.308Z,97483.75
2023-04-12T05:07:44.668Z,97480.72
2023-04-12T05:10:12.437Z,97475.13
2023-04-12T05:12:39.942Z,97485.94
2023-04-12T05:15:11.462Z,97491.94
2023-04-12T05:17:39.233Z,97497.06
2023-04-12T05:20:08.160Z,97499.88
2023-04-12T05:22:36.178Z,97508.69
2023-04-12T05:25:04.047Z,97506.72
2023-04-12T05:27:31.565Z,97499.75
2023-04-12T05:29:59.266Z,97495.81
2023-04-12T05:32:26.865Z,97508.81
2023-04-12T05:34:54.500Z,97511.22
2023-04-12T05:37:21.823Z,97500.53
2023-04-12T05:39:49.448Z,97502.16
2023-04-12T05:42:16.823Z,97497.97
2023-04-12T05:44:46.501Z,97496.72
2023-04-12T05:47:15.101Z,97496.44
2023-04-12T05:49:42.766Z,97494.31
2023-04-12T05:52:10.187Z,97492.66
2023-04-12T05:54:37.790Z,97482.84
2023-04-12T05:57:05.126Z,97490.72
2023-04-12T05:59:32.720Z,97488.53
2023-04-12T06:02:00.961Z,97486.25
2023-04-12T06:04:42.103Z,97490.19
2023-04-12T06:07:19.025Z,97489.66
2023-04-12T06:09:47.417Z,97486.50
2023-04-12T06:12:14.848Z,97485.56
2023-04-12T06:14:42.776Z,97485.22
2023-04-12T06:17:10.103Z,97485.19
2023-04-12T06:19:37.748Z,97491.25
2023-04-12T06:22:05.001Z,97490.31
2023-04-12T06:24:32.724Z,97487.47
2023-04-12T06:26:59.915Z,97479.03
2023-04-12T06:29:27.562Z,97477.13
2023-04-12T06:31:54.855Z,97482.94
2023-04-12T06:34:22.483Z,97475.22
2023-04-12T06:36:49.866Z,97474.34
2023-04-12T06:39:17.689Z,97486.28
2023-04-12T06:41:47.481Z,97484.75
2023-04-12T06:44:15.076Z,97474.22
2023-04-12T06:46:42.691Z,97474.00
2023-04-12T06:49:10.736Z,97480.28
2023-04-12T06:51:37.954Z,97468.72
2023-04-12T06:54:06.133Z,97468.81
2023-04-12T06:56:33.588Z,97468.69
2023-04-12T06:59:01.420Z,97467.06
2023-04-12T07:01:28.766Z,97466.44
2023-04-12T07:03:56.662Z,97464.94
2023-04-12T07:06:25.998Z,97463.91
2023-04-12T07:08:54.515Z,97457.66
2023-04-12T07:11:23.251Z,97456.44
2023-04-12T07:13:51.830Z,97456.41
2023-04-12T07:16:19.472Z,97461.97
2023-04-12T07:18:47.701Z,97467.88
2023-04-12T07:21:17.556Z,97463.09
2023-04-12T07:23:46.674Z,97463.22
2023-04-12T07:26:14.059Z,97466.88
2023-04-12T07:28:41.664Z,97465.06
2023-04-12T07:31:09.278Z,97461.31
2023-04-12T07:33:39.409Z,97457.00
2023-04-12T07:36:08.496Z,97452.31
2023-04-12T07:38:36.268Z,97465.34
2023-04-12T07:41:03.783Z,97460.06
2023-04-12T07:43:31.451Z,97452.88
2023-04-12T07:45:59.445Z,97461.47
2023-04-12T07:48:27.211Z,97461.09
2023-04-12T07:50:54.540Z,97465.09
2023-04-12T07:53:29.654Z,97459.66
2023-04-12T07:55:57.230Z,97462.97
2023-04-12T07:58:25.532Z,97453.00
2023-04-12T08:00:54.164Z,97451.88
2023-04-12T08:03:21.991Z,97444.78
2023-04-12T08:05:53.613Z,97443.53
2023-04-12T08:08:22.812Z,97449.84
2023-04-12T08:10:52.100Z,97446.28
2023-04-12T08:13:20.379Z,97440.81
2023-04-12T08:15:48.252Z,97441.22
2023-04-12T08:18:16.210Z,97467.28
2023-04-12T08:20:44.361Z,97466.78
2023-04-12T08:23:12.530Z,97454.69
2023-04-12T08:25:40.167Z,97448.91
2023-04-12T08:28:10.984Z,97448.16
2023-04-12T08:30:38.462Z,97451.44
2023-04-12T08:33:06.208Z,97441.13
2023-04-12T08:35:33.983Z,97435.75
2023-04-12T08:38:07.507Z,97452.91
2023-04-12T08:40:35.856Z,97443.56
2023-04-12T08:43:12.564Z,97451.72
2023-04-12T08:45:40.021Z,97442.84
2023-04-12T08:48:07.836Z,97438.03
2023-04-12T08:50:35.199Z,97432.25
2023-04-12T08:53:03.856Z,97441.56
2023-04-12T08:55:31.221Z,97440.41
2023-04-12T08:58:00.225Z,97430.06
2023-04-12T09:00:27.902Z,97433.66
2023-04-12T09:02:55.842Z,97425.41
2023-04-12T09:05:30.414Z,97429.06
2023-04-12T09:07:59.052Z,97423.75
2023-04-12T09:10:37.042Z,97419.56
2023-04-12T09:13:06.499Z,97419.28
2023-04-12T09:15:34.963Z,97411.00
2023-04-12T09:18:17.136Z,97405.88
2023-04-12T09:20:44.814Z,97409.94
2023-04-12T09:23:21.930Z,97411.47
2023-04-12T09:25:52.829Z,97413.78
2023-04-12T09:28:26.751Z,97396.59
2023-04-12T09:30:56.325Z,97391.75
2023-04-12T09:33:39.218Z,97398.38
2023-04-12T09:36:14.451Z,97403.22
2023-04-12T09:39:04.533Z,97403.00
2023-04-12T09:41:32.208Z,97408.56
2023-04-12T09:44:01.717Z,97403.38
2023-04-12T09:46:29.195Z,97384.16
2023-04-12T09:49:03.296Z,97369.75
2023-04-12T09:51:36.507Z,97384.97
2023-04-12T09:54:06.968Z,97379.94
2023-04-12T09:56:36.766Z,97374.56
2023-04-12T09:59:07.275Z,97360.09
2023-04-12T10:01:42.386Z,97356.25
2023-04-12T10:04:10.540Z,97354.69
2023-04-12T10:06:38.065Z,97344.53
2023-04-12T10:09:06.962Z,97333.63
2023-04-12T10:11:34.882Z,97340.53
2023-04-12T10:14:03.562Z,97339.19
2023-04-12T10:16:34.145Z,97342.53
2023-04-12T10:19:04.389Z,97342.47
2023-04-12T10:21:32.120Z,97338.75
2023-04-12T10:24:01.082Z,97334.91
2023-04-12T10:26:28.660Z,97335.47
2023-04-12T10:29:26.222Z,97343.41
2023-04-12T10:31:59.440Z,97353.38
2023-04-12T10:34:31.572Z,97349.53
2023-04-12T10:37:01.298Z,97350.28
2023-04-12T10:39:44.493Z,97359.06
2023-04-12T10:42:20.618Z,97337.28
2023-04-12T10:44:49.040Z,97337.94
2023-04-12T10:47:17.435Z,97335.84
2023-04-12T10:50:26.738Z,97313.31
2023-04-12T10:53:18.343Z,97314.50
2023-04-12T10:55:46.160Z,97298.28
2023-04-12T10:58:48.874Z,97290.41
2023-04-12T11:01:18.818Z,97285.06
2023-04-12T11:04:16.865Z,97285.34
2023-04-12T11:06:54.932Z,97277.22
2023-04-12T11:09:25.978Z,97276.66
2023-04-12T11:12:17.248Z,97266.16
2023-04-12T11:14:52.048Z,97274.75
2023-04-12T11:17:23.240Z,97267.53
2023-04-12T11:20:02.336Z,97272.91
2023-04-12T11:22:33.851Z,97263.72
2023-04-12T11:25:03.537Z,97255.63
2023-04-12T11:27:32.362Z,97254.88
2023-04-12T11:30:01.614Z,97257.81
2023-04-12T11:32:31.026Z,97259.06
2023-04-12T11:34:59.401Z,97247.88
2023-04-12T11:37:27.441Z,97253.00
2023-04-12T11:39:58.607Z,97251.41
2023-04-12T11:42:29.415Z,97251.00
2023-04-12T11:45:00.520Z,97243.84
2023-04-12T11:47:30.987Z,97238.88
2023-04-12T11:49:59.530Z,97239.94
2023-04-12T11:52:32.708Z,97236.59
2023-04-12T11:55:07.013Z,97231.44
2023-04-12T11:57:35.595Z,97225.72
2023-04-12T12:00:06.635Z,97223.50
2023-04-12T12:02:43.728Z,97211.88
2023-04-12T12:05:13.892Z,97206.06
2023-04-12T12:07:42.040Z,97206.41
2023-04-12T12:10:10.576Z,97204.16
2023-04-12T12:12:38.313Z,97202.53
2023-04-12T12:15:06.472Z,97202.34
2023-04-12T12:17:40.707Z,97193.91
2023-04-12T12:20:20.561Z,97194.75
2023-04-12T12:22:49.247Z,97204.59
2023-04-12T12:25:19.467Z,97193.47
2023-04-12T12:27:51.372Z,97186.50
2023-04-12T12:30:22.174Z,97184.75
2023-04-12T12:32:54.538Z,97186.00
2023-04-12T12:35:21.862Z,97182.75
2023-04-12T12:37:52.683Z,97180.25
2023-04-12T12:40:32.563Z,97176.25
2023-04-12T12:43:00.899Z,97169.50
2023-04-12T12:45:31.590Z,97173.34
2023-04-12T12:48:05.005Z,97167.72
2023-04-12T12:50:35.045Z,97164.78
2023-04-12T12:53:04.128Z,97163.72
2023-04-12T12:55:31.923Z,97157.84
2023-04-12T13:00:30.514Z,97151.66
2023-04-12T13:02:58.966Z,97156.66
2023-04-12T13:05:26.665Z,97152.31
2023-04-12T13:07:54.273Z,97149.09
2023-04-12T13:10:21.694Z,97142.22
2023-04-12T13:12:49.376Z,97142.84
2023-04-12T13:15:23.132Z,97144.09
2023-04-12T13:17:53.600Z,97132.94
2023-04-12T13:20:24.361Z,97136.81
2023-04-12T13:22:52.296Z,97136.31
2023-04-12T13:25:20.977Z,97127.38
2023-04-12T13:27:50.370Z,97125.41
2023-04-12T13:30:19.926Z,97120.66
2023-04-12T13:32:47.598Z,97122.72
2023-04-12T13:35:14.960Z,97123.91
2023-04-12T13:37:42.633Z,97128.97
2023-04-12T13:40:10.430Z,97116.72
2023-04-12T13:42:38.070Z,97117.56
2023-04-12T13:45:07.114Z,97118.72
2023-04-12T13:47:35.497Z,97110.75
2023-04-12T13:50:02.931Z,97106.22
2023-04-12T13:52:30.540Z,97108.44
2023-04-12T13:54:59.707Z,97112.06
2023-04-12T13:57:27.290Z,97111.75
2023-04-12T13:59:54.597Z,97121.28
2023-04-12T14:02:22.027Z,97106.56
2023-04-12T14:04:55.238Z,97108.13
2023-04-12T14:07:29.549Z,97103.97
2023-04-12T14:09:57.898Z,97104.50
2023-04-12T14:12:25.139Z,97105.00
2023-04-12T14:14:52.806Z,97105.59
2023-04-12T14:17:20.142Z,97101.91
2023-04-12T14:19:47.829Z,97094.09
2023-04-12T14:22:15.026Z,97100.50
2023-04-12T14:24:42.600Z,97100.19
2023-04-12T14:27:09.935Z,97106.25
2023-04-12T14:29:39.628Z,97104.59
2023-04-12T14:32:06.829Z,97085.25
2023-04-12T14:34:34.542Z,97086.84
2023-04-12T14:37:01.887Z,97082.25
2023-04-12T14:39:30.879Z,97102.72
2023-04-12T14:41:58.184Z,97099.41
2023-04-12T14:44:26.461Z,97094.81
2023-04-12T14:46:53.806Z,97092.13
2023-04-12T14:49:21.431Z,97106.13
2023-04-12T14:51:48.654Z,97092.03
2023-04-12T14:54:16.311Z,97086.28
2023-04-12T14:56:51.471Z,97086.63
2023-04-12T14:59:20.263Z,97076.31
2023-04-12T15:01:47.648Z,97077.06
2023-04-12T15:04:15.449Z,97076.78
2023-04-12T15:06:43.830Z,97077.81
2023-04-12T15:09:13.598Z,97078.97
2023-04-12T15:11:46.324Z,97075.69
2023-04-12T15:14:20.961Z,97071.34
2023-04-12T15:16:51.874Z,97070.84
2023-04-12T15:19:23.106Z,97081.69
2023-04-12T15:21:55.521Z,97069.09
2023-04-12T15:24:25.128Z,97063.69
2023-04-12T15:26:53.298Z,97059.31
2023-04-12T15:29:26.863Z,97061.31
2023-04-12T15:31:56.714Z,97059.97
2023-04-12T15:34:25.326Z,97060.22
2023-04-12T15:36:53.016Z,97058.53
2023-04-12T15:39:21.293Z,97059.53
2023-04-12T15:41:48.888Z,97061.81
2023-04-12T15:44:16.814Z,97061.44
2023-04-12T15:46:56.053Z,97055.00
2023-04-12T15:49:32.075Z,97057.34
2023-04-12T15:52:00.833Z,97053.72
2023-04-12T15:54:28.503Z,97047.78
2023-04-12T15:56:55.863Z,97046.84
2023-04-12T15:59:24.104Z,97053.00
2023-04-12T16:01:52.349Z,97048.19
2023-04-12T16:04:20.732Z,97044.75
2023-04-12T16:06:48.212Z,97042.28
2023-04-12T16:09:16.857Z,97030.69
2023-04-12T16:11:46.538Z,97033.88
2023-04-12T16:14:14.758Z,97033.59
2023-04-12T16:16:42.166Z,97026.50
2023-04-12T16:19:09.961Z,97035.13
2023-04-12T16:21:40.560Z,97032.53
2023-04-12T16:24:10.275Z,97026.63
2023-04-12T16:26:39.262Z,97031.91
2023-04-12T16:29:06.868Z,97027.97
2023-04-12T16:31:34.254Z,97027.28
2023-04-12T16:34:02.180Z,97022.38
2023-04-12T16:36:31.480Z,97016.13
2023-04-12T16:39:01.217Z,97016.47
2023-04-12T16:41:28.587Z,97013.16
2023-04-12T16:44:01.688Z,97009.88
2023-04-12T16:46:29.083Z,97014.31
2023-04-12T16:48:59.140Z,97008.59
2023-04-12T16:51:27.280Z,97001.00
2023-04-12T16:54:04.849Z,96997.72
2023-04-12T16:56:32.339Z,97002.34
2023-04-12T16:59:00.187Z,96995.25
2023-04-12T17:01:27.511Z,96994.63
2023-04-12T17:03:55.226Z,96999.41
2023-04-12T17:06:22.638Z,97001.88
2023-04-12T17:08:50.257Z,96992.66
2023-04-12T17:11:17.544Z,96999.09
2023-04-12T17:13:46.442Z,96996.53
2023-04-12T17:16:16.330Z,96994.34
2023-04-12T17:18:44.206Z,97002.38
2023-04-12T17:21:11.879Z,97005.44
2023-04-12T17:23:39.599Z,97001.81
2023-04-12T17:26:08.433Z,97001.44
2023-04-12T17:28:38.948Z,96993.75
2023-04-12T17:31:08.994Z,96999.66
2023-04-12T17:33:37.818Z,97003.41
2023-04-12T17:36:11.347Z,97003.19
2023-04-12T17:38:39.331Z,97008.22
2023-04-12T17:41:09.366Z,97013.78
2023-04-12T17:43:37.024Z,97017.63
2023-04-12T17:46:05.830Z,97016.09
2023-04-12T17:48:33.488Z,97016.84
2023-04-12T17:51:02.499Z,97020.22
2023-04-12T17:53:30.139Z,97019.19
2023-04-12T17:55:57.674Z,97018.44
2023-04-12T17:58:25.203Z,97015.16
2023-04-12T18:00:52.701Z,97015.00
2023-04-12T18:03:20.712Z,97017.00
2023-04-12T18:05:48.226Z,97017.91
2023-04-12T18:08:17.121Z,97024.50
2023-04-12T18:10:45.553Z,97016.41
2023-04-12T18:13:13.168Z,97018.38
2023-04-12T18:15:40.521Z,97027.22
2023-04-12T18:18:08.220Z,97028.88
2023-04-12T18:20:35.702Z,97030.28
2023-04-12T18:23:03.420Z,97030.72
2023-04-12T18:25:31.049Z,97023.31
2023-04-12T18:27:59.166Z,97031.72
2023-04-12T18:30:26.531Z,97023.50
2023-04-12T18:32:54.237Z,97028.47
2023-04-12T18:35:21.638Z,97024.34
2023-04-12T18:37:49.232Z,97019.69
2023-04-12T18:40:16.807Z,97017.25
2023-04-12T18:42:46.135Z,97013.13
2023-04-12T18:45:13.471Z,97015.47
2023-04-12T18:47:42.218Z,97014.56
2023-04-12T18:50:10.182Z,97015.78
2023-04-12T18:52:38.845Z,97028.06
2023-04-12T18:55:07.247Z,97030.25
2023-04-12T18:57:34.858Z,97034.25
2023-04-12T19:00:05.620Z,97036.59
2023-04-12T19:02:34.739Z,97021.72
2023-04-12T19:05:03.163Z,97026.97
2023-04-12T19:07:31.142Z,97028.44
2023-04-12T19:09:58.437Z,97027.91
2023-04-12T19:12:26.250Z,97028.75
2023-04-12T19:14:53.617Z,97031.22
2023-04-12T19:17:27.815Z,97028.44
2023-04-12T19:19:56.056Z,97032.47
2023-04-12T19:22:27.482Z,97028.16
2023-04-12T19:24:55.065Z,97034.94
2023-04-12T19:27:23.222Z,97034.34
2023-04-12T19:29:51.786Z,97036.00
2023-04-12T19:32:19.635Z,97029.13
2023-04-12T19:34:47.805Z,97032.00
2023-04-12T19:37:15.385Z,97032.00
2023-04-12T19:39:42.679Z,97032.25
2023-04-12T19:42:11.075Z,97029.75
2023-04-12T19:44:40.279Z,97024.38
2023-04-12T19:47:08.168Z,97031.81
2023-04-12T19:49:36.974Z,97020.78
2023-04-12T19:52:05.783Z,97024.63
2023-04-12T19:54:33.631Z,97023.66
2023-04-12T19:57:04.615Z,97019.41
2023-04-12T19:59:34.444Z,97006.63
2023-04-12T20:02:02.103Z,97008.34
2023-04-12T20:04:36.435Z,97009.19
2023-04-12T20:07:04.914Z,97006.56
2023-04-12T20:09:32.420Z,97008.09
2023-04-12T20:12:00.060Z,97005.84
2023-04-12T20:14:27.427Z,97007.66
2023-04-12T20:16:56.966Z,96997.34
2023-04-12T20:19:25.557Z,96996.78
2023-04-12T20:22:00.480Z,97000.31
2023-04-12T20:24:30.146Z,97000.06
2023-04-12T20:26:57.876Z,97001.38
2023-04-12T20:29:25.244Z,96996.69
2023-04-12T20:31:53.748Z,96994.44
2023-04-12T20:34:21.169Z,96996.34
2023-04-12T20:36:48.769Z,96994.69
2023-04-12T20:39:16.421Z,96994.09
2023-04-12T20:41:50.047Z,96985.81
2023-04-12T20:44:19.957Z,96984.06
2023-04-12T20:46:49.097Z,96985.94
2023-04-12T20:49:16.742Z,96991.56
2023-04-12T20:51:46.832Z,96990.47
2023-04-12T20:54:14.436Z,96994.16
2023-04-12T20:56:42.106Z,96989.88
2023-04-12T20:59:10.536Z,96992.91
2023-04-12T21:01:38.211Z,96992.97
2023-04-12T21:04:06.777Z,96985.53
2023-04-12T21:06:34.670Z,96987.16
2023-04-12T21:09:04.384Z,96983.41
2023-04-12T21:11:32.364Z,96976.94
2023-04-12T21:13:59.692Z,96976.94
2023-04-12T21:16:27.364Z,96969.00
2023-04-12T21:18:54.699Z,96975.03
2023-04-12T21:21:22.655Z,96971.28
2023-04-12T21:23:51.595Z,96969.50
2023-04-12T21:26:19.153Z,96968.66
2023-04-12T21:28:46.510Z,96971.78
2023-04-12T21:31:14.168Z,96971.69
2023-04-12T21:33:41.827Z,96967.69
2023-04-12T21:36:10.294Z,96963.44
2023-04-12T21:38:37.600Z,96960.69
2023-04-12T21:41:13.009Z,96961.31
2023-04-12T21:43:40.877Z,96961.91
2023-04-12T21:46:09.089Z,96954.50
2023-04-12T21:48:36.977Z,96958.50
2023-04-12T21:51:10.836Z,96959.31
2023-04-12T21:53:38.083Z,96955.81
2023-04-12T21:56:06.606Z,96954.03
2023-04-12T21:58:34.240Z,96959.97
2023-04-12T22:01:02.643Z,96957.97
2023-04-12T22:03:30.039Z,96955.25
2023-04-12T22:06:04.267Z,96964.72
2023-04-12T22:08:33.208Z,96962.59
2023-04-12T22:11:01.490Z,96960.50
2023-04-12T22:13:28.899Z,96950.78
2023-04-12T22:15:57.906Z,96957.16
2023-04-12T22:18:25.250Z,96954.34
2023-04-12T22:20:53.042Z,96944.88
2023-04-12T22:23:20.293Z,96948.00
2023-04-12T22:25:49.619Z,96945.38
2023-04-12T22:28:17.185Z,96947.38
2023-04-12T22:30:46.864Z,96945.03
2023-04-12T22:33:16.006Z,96944.78
2023-04-12T22:35:44.140Z,96943.25
2023-04-12T22:38:13.928Z,96939.59
2023-04-12T22:40:41.429Z,96940.19
2023-04-12T22:43:18.130Z,96938.97
2023-04-12T22:45:48.391Z,96938.16
2023-04-12T22:48:15.979Z,96926.91
2023-04-12T22:50:47.063Z,96924.31
2023-04-12T22:53:15.894Z,96917.00
2023-04-12T22:55:44.021Z,96915.13
2023-04-12T22:58:11.391Z,96919.28
2023-04-12T23:00:39.471Z,96901.16
2023-04-12T23:03:10.907Z,96900.72
2023-04-12T23:05:39.093Z,96904.28
2023-04-12T23:08:06.428Z,96891.72
2023-04-12T23:10:34.324Z,96893.63
2023-04-12T23:13:01.556Z,96884.19
2023-04-12T23:15:30.611Z,96878.75
2023-04-12T23:17:57.821Z,96868.22
2023-04-12T23:20:25.443Z,96869.75
2023-04-12T23:22:58.161Z,96864.22
2023-04-12T23:25:39.762Z,96866.69
2023-04-12T23:28:13.255Z,96863.03
2023-04-12T23:30:49.674Z,96870.00
2023-04-12T23:33:21.654Z,96874.00
2023-04-12T23:35:55.987Z,96863.75
2023-04-12T23:38:32.321Z,96860.56
2023-04-12T23:41:06.367Z,96857.72
2023-04-12T23:43:34.973Z,96854.97
2023-04-12T23:46:03.557Z,96849.56
2023-04-12T23:48:32.834Z,96844.34
2023-04-12T23:51:00.755Z,96851.34
2023-04-12T23:53:28.184Z,96851.09
2023-04-12T23:55:56.142Z,96852.72
2023-04-12T23:58:25.537Z,96847.53
